sensor_id;sensor_type;location;lat;lon;timestamp;P1;durP1;ratioP1;P2;durP2;ratioP2
19891;SDS011;10108;50.142;8.724;2023-08-06T00:00:29;16.52;;;13.57;;
19891;SDS011;10108;50.142;8.724;2023-08-06T00:02:55;16.35;;;13.85;;
19891;SDS011;10108;50.142;8.724;2023-08-06T00:05:21;16.40;;;13.50;;
19891;SDS011;10108;50.142;8.724;2023-08-06T00:07:47;16.30;;;12.40;;
19891;SDS011;10108;50.142;8.724;2023-08-06T00:10:14;16.85;;;12.55;;
19891;SDS011;10108;50.142;8.724;2023-08-06T00:12:40;16.10;;;12.43;;
19891;SDS011;10108;50.142;8.724;2023-08-06T00:15:07;14.68;;;11.45;;
19891;SDS011;10108;50.142;8.724;2023-08-06T00:17:34;15.15;;;11.63;;
19891;SDS011;10108;50.142;8.724;2023-08-06T00:20:00;15.60;;;11.20;;
19891;SDS011;10108;50.142;8.724;2023-08-06T00:22:31;15.18;;;10.85;;
19891;SDS011;10108;50.142;8.724;2023-08-06T00:24:58;14.43;;;10.57;;
19891;SDS011;10108;50.142;8.724;2023-08-06T00:27:24;15.15;;;10.75;;
19891;SDS011;10108;50.142;8.724;2023-08-06T00:29:51;12.43;;;10.35;;
19891;SDS011;10108;50.142;8.724;2023-08-06T00:32:18;13.88;;;10.82;;
19891;SDS011;10108;50.142;8.724;2023-08-06T00:34:45;13.73;;;10.63;;
19891;SDS011;10108;50.142;8.724;2023-08-06T00:37:11;15.40;;;10.30;;
19891;SDS011;10108;50.142;8.724;2023-08-06T00:39:38;12.75;;;9.77;;
19891;SDS011;10108;50.142;8.724;2023-08-06T00:42:04;16.92;;;10.15;;
19891;SDS011;10108;50.142;8.724;2023-08-06T00:44:31;13.55;;;10.32;;
19891;SDS011;10108;50.142;8.724;2023-08-06T00:46:57;14.02;;;10.05;;
19891;SDS011;10108;50.142;8.724;2023-08-06T00:49:23;13.60;;;10.25;;
19891;SDS011;10108;50.142;8.724;2023-08-06T00:51:50;13.75;;;9.93;;
19891;SDS011;10108;50.142;8.724;2023-08-06T00:54:16;13.82;;;9.68;;
19891;SDS011;10108;50.142;8.724;2023-08-06T00:56:42;14.95;;;9.95;;
19891;SDS011;10108;50.142;8.724;2023-08-06T00:59:09;14.60;;;9.45;;
19891;SDS011;10108;50.142;8.724;2023-08-06T01:01:37;17.02;;;9.98;;
19891;SDS011;10108;50.142;8.724;2023-08-06T01:04:03;15.73;;;10.07;;
19891;SDS011;10108;50.142;8.724;2023-08-06T01:09:08;14.75;;;10.15;;
19891;SDS011;10108;50.142;8.724;2023-08-06T01:12:01;12.02;;;9.93;;
19891;SDS011;10108;50.142;8.724;2023-08-06T01:14:52;15.25;;;10.25;;
19891;SDS011;10108;50.142;8.724;2023-08-06T01:17:26;13.57;;;10.05;;
19891;SDS011;10108;50.142;8.724;2023-08-06T01:19:53;13.95;;;10.18;;
19891;SDS011;10108;50.142;8.724;2023-08-06T01:22:19;13.35;;;9.73;;
19891;SDS011;10108;50.142;8.724;2023-08-06T01:24:46;15.00;;;9.82;;
19891;SDS011;10108;50.142;8.724;2023-08-06T01:29:56;14.35;;;9.63;;
19891;SDS011;10108;50.142;8.724;2023-08-06T01:32:34;13.13;;;9.90;;
19891;SDS011;10108;50.142;8.724;2023-08-06T01:35:03;15.60;;;10.23;;
19891;SDS011;10108;50.142;8.724;2023-08-06T01:37:30;14.10;;;9.65;;
19891;SDS011;10108;50.142;8.724;2023-08-06T01:39:57;14.00;;;9.13;;
19891;SDS011;10108;50.142;8.724;2023-08-06T01:42:24;14.65;;;9.25;;
19891;SDS011;10108;50.142;8.724;2023-08-06T01:44:50;16.02;;;9.65;;
19891;SDS011;10108;50.142;8.724;2023-08-06T01:47:16;11.68;;;9.18;;
19891;SDS011;10108;50.142;8.724;2023-08-06T01:49:43;13.75;;;9.18;;
19891;SDS011;10108;50.142;8.724;2023-08-06T01:52:09;13.25;;;9.70;;
19891;SDS011;10108;50.142;8.724;2023-08-06T01:54:35;13.07;;;9.25;;
19891;SDS011;10108;50.142;8.724;2023-08-06T01:57:01;12.32;;;8.65;;
19891;SDS011;10108;50.142;8.724;2023-08-06T01:59:27;11.60;;;9.23;;
19891;SDS011;10108;50.142;8.724;2023-08-06T02:01:53;15.63;;;9.20;;
19891;SDS011;10108;50.142;8.724;2023-08-06T02:04:19;13.15;;;9.50;;
19891;SDS011;10108;50.142;8.724;2023-08-06T02:06:45;12.80;;;9.63;;
19891;SDS011;10108;50.142;8.724;2023-08-06T02:09:11;14.00;;;9.25;;
19891;SDS011;10108;50.142;8.724;2023-08-06T02:11:38;13.68;;;9.65;;
19891;SDS011;10108;50.142;8.724;2023-08-06T02:14:04;15.93;;;10.00;;
19891;SDS011;10108;50.142;8.724;2023-08-06T02:16:30;12.25;;;9.77;;
19891;SDS011;10108;50.142;8.724;2023-08-06T02:18:56;15.50;;;9.80;;
19891;SDS011;10108;50.142;8.724;2023-08-06T02:21:22;12.60;;;10.07;;
19891;SDS011;10108;50.142;8.724;2023-08-06T02:23:48;14.07;;;9.57;;
19891;SDS011;10108;50.142;8.724;2023-08-06T02:26:14;12.70;;;9.48;;
19891;SDS011;10108;50.142;8.724;2023-08-06T02:28:40;12.02;;;9.55;;
19891;SDS011;10108;50.142;8.724;2023-08-06T02:31:06;12.10;;;8.70;;
19891;SDS011;10108;50.142;8.724;2023-08-06T02:33:34;14.63;;;8.63;;
19891;SDS011;10108;50.142;8.724;2023-08-06T02:36:01;11.52;;;8.40;;
19891;SDS011;10108;50.142;8.724;2023-08-06T02:38:31;11.35;;;8.18;;
19891;SDS011;10108;50.142;8.724;2023-08-06T02:40:58;11.80;;;8.50;;
19891;SDS011;10108;50.142;8.724;2023-08-06T02:43:24;12.05;;;8.48;;
19891;SDS011;10108;50.142;8.724;2023-08-06T02:45:51;11.20;;;7.95;;
19891;SDS011;10108;50.142;8.724;2023-08-06T02:48:17;12.35;;;8.02;;
19891;SDS011;10108;50.142;8.724;2023-08-06T02:50:43;13.30;;;8.30;;
19891;SDS011;10108;50.142;8.724;2023-08-06T02:53:10;13.95;;;8.15;;
19891;SDS011;10108;50.142;8.724;2023-08-06T02:55:37;13.77;;;8.77;;
19891;SDS011;10108;50.142;8.724;2023-08-06T02:58:10;12.30;;;7.72;;
19891;SDS011;10108;50.142;8.724;2023-08-06T03:00:40;13.13;;;7.95;;
19891;SDS011;10108;50.142;8.724;2023-08-06T03:03:07;13.13;;;7.95;;
19891;SDS011;10108;50.142;8.724;2023-08-06T03:05:51;11.98;;;7.93;;
19891;SDS011;10108;50.142;8.724;2023-08-06T03:08:21;14.50;;;7.95;;
19891;SDS011;10108;50.142;8.724;2023-08-06T03:10:50;12.90;;;7.63;;
19891;SDS011;10108;50.142;8.724;2023-08-06T03:13:18;11.95;;;7.32;;
19891;SDS011;10108;50.142;8.724;2023-08-06T03:15:58;13.43;;;7.88;;
19891;SDS011;10108;50.142;8.724;2023-08-06T03:18:26;11.63;;;7.75;;
19891;SDS011;10108;50.142;8.724;2023-08-06T03:20:53;12.48;;;7.50;;
19891;SDS011;10108;50.142;8.724;2023-08-06T03:23:20;10.73;;;7.10;;
19891;SDS011;10108;50.142;8.724;2023-08-06T03:25:46;12.23;;;7.50;;
19891;SDS011;10108;50.142;8.724;2023-08-06T03:28:13;13.25;;;8.18;;
19891;SDS011;10108;50.142;8.724;2023-08-06T03:30:41;11.55;;;7.50;;
19891;SDS011;10108;50.142;8.724;2023-08-06T03:33:10;13.43;;;8.30;;
19891;SDS011;10108;50.142;8.724;2023-08-06T03:35:36;13.02;;;8.77;;
19891;SDS011;10108;50.142;8.724;2023-08-06T03:38:02;11.45;;;8.02;;
19891;SDS011;10108;50.142;8.724;2023-08-06T03:40:28;12.65;;;8.15;;
19891;SDS011;10108;50.142;8.724;2023-08-06T03:42:56;13.57;;;8.10;;
19891;SDS011;10108;50.142;8.724;2023-08-06T03:45:22;12.57;;;7.82;;
19891;SDS011;10108;50.142;8.724;2023-08-06T03:47:48;11.77;;;8.40;;
19891;SDS011;10108;50.142;8.724;2023-08-06T03:50:15;11.00;;;7.55;;
19891;SDS011;10108;50.142;8.724;2023-08-06T03:52:43;12.23;;;7.65;;
19891;SDS011;10108;50.142;8.724;2023-08-06T03:55:10;14.45;;;7.80;;
19891;SDS011;10108;50.142;8.724;2023-08-06T03:57:36;11.90;;;7.70;;
19891;SDS011;10108;50.142;8.724;2023-08-06T04:00:03;13.73;;;7.90;;
19891;SDS011;10108;50.142;8.724;2023-08-06T04:02:40;11.35;;;7.20;;
19891;SDS011;10108;50.142;8.724;2023-08-06T04:05:07;11.15;;;7.30;;
19891;SDS011;10108;50.142;8.724;2023-08-06T04:07:33;11.85;;;7.60;;
19891;SDS011;10108;50.142;8.724;2023-08-06T04:10:00;12.77;;;6.97;;
19891;SDS011;10108;50.142;8.724;2023-08-06T04:12:28;14.02;;;8.30;;
19891;SDS011;10108;50.142;8.724;2023-08-06T04:14:57;12.35;;;7.63;;
19891;SDS011;10108;50.142;8.724;2023-08-06T04:17:23;11.40;;;7.22;;
19891;SDS011;10108;50.142;8.724;2023-08-06T04:19:50;10.95;;;6.15;;
19891;SDS011;10108;50.142;8.724;2023-08-06T04:22:18;12.57;;;6.70;;
19891;SDS011;10108;50.142;8.724;2023-08-06T04:24:44;12.35;;;6.82;;
19891;SDS011;10108;50.142;8.724;2023-08-06T04:27:11;11.73;;;6.88;;
19891;SDS011;10108;50.142;8.724;2023-08-06T04:29:38;12.25;;;6.43;;
19891;SDS011;10108;50.142;8.724;2023-08-06T04:32:06;10.63;;;6.45;;
19891;SDS011;10108;50.142;8.724;2023-08-06T04:34:35;12.90;;;6.70;;
19891;SDS011;10108;50.142;8.724;2023-08-06T04:37:02;12.82;;;6.30;;
19891;SDS011;10108;50.142;8.724;2023-08-06T04:39:29;12.18;;;6.47;;
19891;SDS011;10108;50.142;8.724;2023-08-06T04:41:56;11.70;;;6.07;;
19891;SDS011;10108;50.142;8.724;2023-08-06T04:44:26;11.77;;;5.95;;
19891;SDS011;10108;50.142;8.724;2023-08-06T04:46:52;13.05;;;6.32;;
19891;SDS011;10108;50.142;8.724;2023-08-06T04:49:21;13.60;;;5.97;;
19891;SDS011;10108;50.142;8.724;2023-08-06T04:51:47;11.48;;;6.10;;
19891;SDS011;10108;50.142;8.724;2023-08-06T04:54:14;11.55;;;5.93;;
19891;SDS011;10108;50.142;8.724;2023-08-06T04:56:40;9.95;;;5.40;;
19891;SDS011;10108;50.142;8.724;2023-08-06T04:59:06;9.73;;;5.70;;
19891;SDS011;10108;50.142;8.724;2023-08-06T05:01:32;10.63;;;5.43;;
19891;SDS011;10108;50.142;8.724;2023-08-06T05:03:58;10.73;;;5.68;;
19891;SDS011;10108;50.142;8.724;2023-08-06T05:06:24;9.48;;;5.18;;
19891;SDS011;10108;50.142;8.724;2023-08-06T05:08:50;8.85;;;5.00;;
19891;SDS011;10108;50.142;8.724;2023-08-06T05:11:17;6.80;;;4.35;;
19891;SDS011;10108;50.142;8.724;2023-08-06T05:13:43;8.35;;;4.78;;
19891;SDS011;10108;50.142;8.724;2023-08-06T05:16:09;7.82;;;4.75;;
19891;SDS011;10108;50.142;8.724;2023-08-06T05:18:35;10.43;;;5.07;;
19891;SDS011;10108;50.142;8.724;2023-08-06T05:21:03;8.45;;;5.18;;
19891;SDS011;10108;50.142;8.724;2023-08-06T05:23:29;7.78;;;4.80;;
19891;SDS011;10108;50.142;8.724;2023-08-06T05:25:55;9.93;;;5.80;;
19891;SDS011;10108;50.142;8.724;2023-08-06T05:28:21;8.80;;;5.57;;
19891;SDS011;10108;50.142;8.724;2023-08-06T05:30:47;10.40;;;5.45;;
19891;SDS011;10108;50.142;8.724;2023-08-06T05:33:13;9.63;;;5.47;;
19891;SDS011;10108;50.142;8.724;2023-08-06T05:35:40;9.82;;;5.90;;
19891;SDS011;10108;50.142;8.724;2023-08-06T05:38:07;8.65;;;5.70;;
19891;SDS011;10108;50.142;8.724;2023-08-06T05:40:34;8.75;;;5.53;;
19891;SDS011;10108;50.142;8.724;2023-08-06T05:43:00;11.02;;;5.43;;
19891;SDS011;10108;50.142;8.724;2023-08-06T05:45:26;10.82;;;5.65;;
19891;SDS011;10108;50.142;8.724;2023-08-06T05:47:52;9.80;;;5.50;;
19891;SDS011;10108;50.142;8.724;2023-08-06T05:50:19;7.63;;;5.32;;
19891;SDS011;10108;50.142;8.724;2023-08-06T05:52:45;11.18;;;5.50;;
19891;SDS011;10108;50.142;8.724;2023-08-06T05:55:12;9.07;;;5.43;;
19891;SDS011;10108;50.142;8.724;2023-08-06T05:57:38;10.15;;;5.45;;
19891;SDS011;10108;50.142;8.724;2023-08-06T06:00:04;8.90;;;5.22;;
19891;SDS011;10108;50.142;8.724;2023-08-06T06:02:38;9.27;;;5.05;;
19891;SDS011;10108;50.142;8.724;2023-08-06T06:05:04;7.90;;;5.30;;
19891;SDS011;10108;50.142;8.724;2023-08-06T06:07:30;8.50;;;5.10;;
19891;SDS011;10108;50.142;8.724;2023-08-06T06:09:56;10.38;;;5.10;;
19891;SDS011;10108;50.142;8.724;2023-08-06T06:12:23;7.93;;;5.20;;
19891;SDS011;10108;50.142;8.724;2023-08-06T06:14:51;8.00;;;5.10;;
19891;SDS011;10108;50.142;8.724;2023-08-06T06:17:17;9.57;;;5.45;;
19891;SDS011;10108;50.142;8.724;2023-08-06T06:19:43;7.35;;;5.10;;
19891;SDS011;10108;50.142;8.724;2023-08-06T06:22:09;9.00;;;4.88;;
19891;SDS011;10108;50.142;8.724;2023-08-06T06:24:35;8.35;;;5.03;;
19891;SDS011;10108;50.142;8.724;2023-08-06T06:27:01;8.55;;;4.93;;
19891;SDS011;10108;50.142;8.724;2023-08-06T06:29:28;9.15;;;4.20;;
19891;SDS011;10108;50.142;8.724;2023-08-06T06:31:54;9.27;;;4.20;;
19891;SDS011;10108;50.142;8.724;2023-08-06T06:34:20;5.78;;;4.18;;
19891;SDS011;10108;50.142;8.724;2023-08-06T06:36:46;6.68;;;4.20;;
19891;SDS011;10108;50.142;8.724;2023-08-06T06:39:12;6.15;;;4.25;;
19891;SDS011;10108;50.142;8.724;2023-08-06T06:41:38;7.50;;;3.92;;
19891;SDS011;10108;50.142;8.724;2023-08-06T06:44:15;7.70;;;4.05;;
19891;SDS011;10108;50.142;8.724;2023-08-06T06:46:42;6.32;;;4.07;;
19891;SDS011;10108;50.142;8.724;2023-08-06T06:49:08;7.63;;;4.07;;
19891;SDS011;10108;50.142;8.724;2023-08-06T06:51:34;6.72;;;4.20;;
19891;SDS011;10108;50.142;8.724;2023-08-06T06:54:00;7.05;;;3.80;;
19891;SDS011;10108;50.142;8.724;2023-08-06T06:56:26;6.00;;;3.90;;
19891;SDS011;10108;50.142;8.724;2023-08-06T06:58:52;6.70;;;4.22;;
19891;SDS011;10108;50.142;8.724;2023-08-06T07:01:18;6.15;;;4.10;;
19891;SDS011;10108;50.142;8.724;2023-08-06T07:03:44;7.55;;;4.68;;
19891;SDS011;10108;50.142;8.724;2023-08-06T07:06:10;6.43;;;4.50;;
19891;SDS011;10108;50.142;8.724;2023-08-06T07:08:38;6.07;;;4.22;;
19891;SDS011;10108;50.142;8.724;2023-08-06T07:11:05;6.45;;;4.30;;
19891;SDS011;10108;50.142;8.724;2023-08-06T07:13:32;7.60;;;4.50;;
19891;SDS011;10108;50.142;8.724;2023-08-06T07:15:59;6.88;;;4.63;;
19891;SDS011;10108;50.142;8.724;2023-08-06T07:18:25;7.65;;;5.07;;
19891;SDS011;10108;50.142;8.724;2023-08-06T07:20:52;6.00;;;4.65;;
19891;SDS011;10108;50.142;8.724;2023-08-06T07:23:22;7.63;;;4.82;;
19891;SDS011;10108;50.142;8.724;2023-08-06T07:25:50;6.28;;;4.40;;
19891;SDS011;10108;50.142;8.724;2023-08-06T07:28:16;7.15;;;4.78;;
19891;SDS011;10108;50.142;8.724;2023-08-06T07:30:43;7.03;;;4.85;;
19891;SDS011;10108;50.142;8.724;2023-08-06T07:33:10;5.90;;;4.93;;
19891;SDS011;10108;50.142;8.724;2023-08-06T07:35:37;5.40;;;4.72;;
19891;SDS011;10108;50.142;8.724;2023-08-06T07:38:04;9.80;;;5.18;;
19891;SDS011;10108;50.142;8.724;2023-08-06T07:40:30;6.35;;;4.80;;
19891;SDS011;10108;50.142;8.724;2023-08-06T07:42:56;6.28;;;5.10;;
19891;SDS011;10108;50.142;8.724;2023-08-06T07:45:22;6.05;;;5.20;;
19891;SDS011;10108;50.142;8.724;2023-08-06T07:47:48;6.80;;;5.40;;
19891;SDS011;10108;50.142;8.724;2023-08-06T07:50:14;6.22;;;5.20;;
19891;SDS011;10108;50.142;8.724;2023-08-06T07:52:40;7.15;;;5.60;;
19891;SDS011;10108;50.142;8.724;2023-08-06T07:55:07;7.32;;;6.20;;
19891;SDS011;10108;50.142;8.724;2023-08-06T07:57:33;7.10;;;5.80;;
19891;SDS011;10108;50.142;8.724;2023-08-06T08:00:01;8.38;;;5.65;;
19891;SDS011;10108;50.142;8.724;2023-08-06T08:02:38;7.32;;;5.45;;
19891;SDS011;10108;50.142;8.724;2023-08-06T08:05:04;6.00;;;5.40;;
19891;SDS011;10108;50.142;8.724;2023-08-06T08:07:32;6.95;;;5.35;;
19891;SDS011;10108;50.142;8.724;2023-08-06T08:09:59;6.40;;;5.32;;
19891;SDS011;10108;50.142;8.724;2023-08-06T08:12:25;6.50;;;5.78;;
19891;SDS011;10108;50.142;8.724;2023-08-06T08:14:51;9.07;;;5.88;;
19891;SDS011;10108;50.142;8.724;2023-08-06T08:17:17;9.32;;;5.90;;
19891;SDS011;10108;50.142;8.724;2023-08-06T08:19:44;7.88;;;5.57;;
19891;SDS011;10108;50.142;8.724;2023-08-06T08:22:10;7.22;;;6.00;;
19891;SDS011;10108;50.142;8.724;2023-08-06T08:24:36;7.78;;;5.88;;
19891;SDS011;10108;50.142;8.724;2023-08-06T08:27:02;8.05;;;5.97;;
19891;SDS011;10108;50.142;8.724;2023-08-06T08:29:28;7.78;;;6.07;;
19891;SDS011;10108;50.142;8.724;2023-08-06T08:31:54;7.03;;;6.25;;
19891;SDS011;10108;50.142;8.724;2023-08-06T08:34:20;7.15;;;5.40;;
19891;SDS011;10108;50.142;8.724;2023-08-06T08:36:47;6.40;;;5.50;;
19891;SDS011;10108;50.142;8.724;2023-08-06T08:39:13;9.70;;;5.80;;
19891;SDS011;10108;50.142;8.724;2023-08-06T08:41:40;7.55;;;5.93;;
19891;SDS011;10108;50.142;8.724;2023-08-06T08:44:09;7.65;;;5.63;;
19891;SDS011;10108;50.142;8.724;2023-08-06T08:46:36;6.43;;;5.20;;
19891;SDS011;10108;50.142;8.724;2023-08-06T08:49:04;8.15;;;4.97;;
19891;SDS011;10108;50.142;8.724;2023-08-06T08:51:30;8.70;;;5.03;;
19891;SDS011;10108;50.142;8.724;2023-08-06T08:53:58;6.25;;;4.82;;
19891;SDS011;10108;50.142;8.724;2023-08-06T08:56:24;10.55;;;5.22;;
19891;SDS011;10108;50.142;8.724;2023-08-06T08:58:50;5.78;;;5.18;;
19891;SDS011;10108;50.142;8.724;2023-08-06T09:01:18;8.70;;;5.38;;
19891;SDS011;10108;50.142;8.724;2023-08-06T09:03:46;8.50;;;5.15;;
19891;SDS011;10108;50.142;8.724;2023-08-06T09:06:12;8.77;;;5.10;;
19891;SDS011;10108;50.142;8.724;2023-08-06T09:08:41;6.68;;;5.05;;
19891;SDS011;10108;50.142;8.724;2023-08-06T09:11:14;6.07;;;5.00;;
19891;SDS011;10108;50.142;8.724;2023-08-06T09:13:41;8.77;;;5.00;;
19891;SDS011;10108;50.142;8.724;2023-08-06T09:16:07;10.43;;;5.30;;
19891;SDS011;10108;50.142;8.724;2023-08-06T09:18:34;6.25;;;5.10;;
19891;SDS011;10108;50.142;8.724;2023-08-06T09:21:00;6.20;;;4.75;;
19891;SDS011;10108;50.142;8.724;2023-08-06T09:23:29;5.75;;;5.10;;
19891;SDS011;10108;50.142;8.724;2023-08-06T09:25:57;5.93;;;4.97;;
19891;SDS011;10108;50.142;8.724;2023-08-06T09:28:23;7.68;;;4.70;;
19891;SDS011;10108;50.142;8.724;2023-08-06T09:30:50;6.00;;;4.70;;
19891;SDS011;10108;50.142;8.724;2023-08-06T09:33:20;6.75;;;4.32;;
19891;SDS011;10108;50.142;8.724;2023-08-06T09:35:48;4.40;;;3.95;;
19891;SDS011;10108;50.142;8.724;2023-08-06T09:38:14;5.40;;;4.40;;
19891;SDS011;10108;50.142;8.724;2023-08-06T09:40:40;4.82;;;4.32;;
19891;SDS011;10108;50.142;8.724;2023-08-06T09:43:07;5.38;;;4.30;;
19891;SDS011;10108;50.142;8.724;2023-08-06T09:45:36;5.18;;;4.40;;
19891;SDS011;10108;50.142;8.724;2023-08-06T09:48:04;4.82;;;4.28;;
19891;SDS011;10108;50.142;8.724;2023-08-06T09:50:32;5.47;;;4.30;;
19891;SDS011;10108;50.142;8.724;2023-08-06T09:52:59;6.15;;;4.00;;
19891;SDS011;10108;50.142;8.724;2023-08-06T09:55:26;4.70;;;4.10;;
19891;SDS011;10108;50.142;8.724;2023-08-06T09:57:53;4.85;;;4.20;;
19891;SDS011;10108;50.142;8.724;2023-08-06T10:00:20;4.55;;;3.80;;
19891;SDS011;10108;50.142;8.724;2023-08-06T10:02:47;4.47;;;3.85;;
19891;SDS011;10108;50.142;8.724;2023-08-06T10:05:15;7.28;;;3.80;;
19891;SDS011;10108;50.142;8.724;2023-08-06T10:07:42;3.95;;;3.55;;
19891;SDS011;10108;50.142;8.724;2023-08-06T10:10:09;4.95;;;4.30;;
19891;SDS011;10108;50.142;8.724;2023-08-06T10:12:37;4.22;;;3.83;;
19891;SDS011;10108;50.142;8.724;2023-08-06T10:15:08;5.53;;;3.58;;
19891;SDS011;10108;50.142;8.724;2023-08-06T10:17:36;4.47;;;3.70;;
19891;SDS011;10108;50.142;8.724;2023-08-06T10:20:04;5.85;;;3.80;;
19891;SDS011;10108;50.142;8.724;2023-08-06T10:22:33;4.45;;;3.60;;
19891;SDS011;10108;50.142;8.724;2023-08-06T10:25:00;4.90;;;3.25;;
19891;SDS011;10108;50.142;8.724;2023-08-06T10:27:39;4.90;;;3.42;;
19891;SDS011;10108;50.142;8.724;2023-08-06T10:30:25;7.40;;;3.17;;
19891;SDS011;10108;50.142;8.724;2023-08-06T10:32:56;3.35;;;3.00;;
19891;SDS011;10108;50.142;8.724;2023-08-06T10:38:08;3.80;;;3.00;;
19891;SDS011;10108;50.142;8.724;2023-08-06T10:40:48;4.68;;;3.10;;
19891;SDS011;10108;50.142;8.724;2023-08-06T10:43:27;4.18;;;3.05;;
19891;SDS011;10108;50.142;8.724;2023-08-06T10:45:55;5.40;;;2.80;;
19891;SDS011;10108;50.142;8.724;2023-08-06T10:48:28;3.55;;;2.70;;
19891;SDS011;10108;50.142;8.724;2023-08-06T10:50:56;4.25;;;3.10;;
19891;SDS011;10108;50.142;8.724;2023-08-06T10:53:22;3.97;;;3.17;;
19891;SDS011;10108;50.142;8.724;2023-08-06T10:55:48;5.35;;;3.20;;
19891;SDS011;10108;50.142;8.724;2023-08-06T10:58:15;3.97;;;2.90;;
19891;SDS011;10108;50.142;8.724;2023-08-06T11:00:42;3.33;;;2.80;;
19891;SDS011;10108;50.142;8.724;2023-08-06T11:03:08;5.10;;;3.10;;
19891;SDS011;10108;50.142;8.724;2023-08-06T11:05:38;4.38;;;3.40;;
19891;SDS011;10108;50.142;8.724;2023-08-06T11:08:04;5.75;;;3.45;;
19891;SDS011;10108;50.142;8.724;2023-08-06T11:10:32;4.55;;;3.20;;
19891;SDS011;10108;50.142;8.724;2023-08-06T11:13:02;3.20;;;2.90;;
19891;SDS011;10108;50.142;8.724;2023-08-06T11:15:32;3.92;;;3.08;;
19891;SDS011;10108;50.142;8.724;2023-08-06T11:17:58;3.30;;;3.00;;
19891;SDS011;10108;50.142;8.724;2023-08-06T11:20:24;3.45;;;3.05;;
19891;SDS011;10108;50.142;8.724;2023-08-06T11:22:50;3.30;;;3.00;;
19891;SDS011;10108;50.142;8.724;2023-08-06T11:25:19;4.22;;;3.10;;
19891;SDS011;10108;50.142;8.724;2023-08-06T11:27:46;3.40;;;3.10;;
19891;SDS011;10108;50.142;8.724;2023-08-06T11:30:14;3.53;;;3.22;;
19891;SDS011;10108;50.142;8.724;2023-08-06T11:32:46;4.03;;;3.20;;
19891;SDS011;10108;50.142;8.724;2023-08-06T11:35:14;4.15;;;3.10;;
19891;SDS011;10108;50.142;8.724;2023-08-06T11:37:44;5.10;;;3.15;;
19891;SDS011;10108;50.142;8.724;2023-08-06T11:40:14;3.35;;;3.05;;
19891;SDS011;10108;50.142;8.724;2023-08-06T11:42:41;4.22;;;3.20;;
19891;SDS011;10108;50.142;8.724;2023-08-06T11:45:08;3.85;;;2.90;;
19891;SDS011;10108;50.142;8.724;2023-08-06T11:47:37;3.42;;;2.80;;
19891;SDS011;10108;50.142;8.724;2023-08-06T11:50:07;3.33;;;3.03;;
19891;SDS011;10108;50.142;8.724;2023-08-06T11:52:33;6.97;;;3.00;;
19891;SDS011;10108;50.142;8.724;2023-08-06T11:57:26;3.40;;;3.10;;
19891;SDS011;10108;50.142;8.724;2023-08-06T12:00:01;4.90;;;3.53;;
19891;SDS011;10108;50.142;8.724;2023-08-06T12:02:39;8.13;;;4.97;;
19891;SDS011;10108;50.142;8.724;2023-08-06T12:05:11;7.95;;;6.65;;
19891;SDS011;10108;50.142;8.724;2023-08-06T12:07:41;8.07;;;6.47;;
19891;SDS011;10108;50.142;8.724;2023-08-06T12:10:12;7.20;;;6.30;;
19891;SDS011;10108;50.142;8.724;2023-08-06T12:12:39;6.53;;;5.90;;
19891;SDS011;10108;50.142;8.724;2023-08-06T12:15:05;6.70;;;6.00;;
19891;SDS011;10108;50.142;8.724;2023-08-06T12:17:33;6.90;;;5.90;;
19891;SDS011;10108;50.142;8.724;2023-08-06T12:20:00;6.88;;;6.18;;
19891;SDS011;10108;50.142;8.724;2023-08-06T12:22:26;7.70;;;6.85;;
19891;SDS011;10108;50.142;8.724;2023-08-06T12:24:52;7.90;;;6.90;;
19891;SDS011;10108;50.142;8.724;2023-08-06T12:27:18;8.57;;;7.50;;
19891;SDS011;10108;50.142;8.724;2023-08-06T12:29:45;9.38;;;7.55;;
19891;SDS011;10108;50.142;8.724;2023-08-06T12:32:14;9.27;;;6.90;;
19891;SDS011;10108;50.142;8.724;2023-08-06T12:34:40;8.00;;;7.20;;
19891;SDS011;10108;50.142;8.724;2023-08-06T12:37:08;7.80;;;7.00;;
19891;SDS011;10108;50.142;8.724;2023-08-06T12:39:35;8.43;;;7.53;;
19891;SDS011;10108;50.142;8.724;2023-08-06T12:42:03;8.27;;;7.38;;
19891;SDS011;10108;50.142;8.724;2023-08-06T12:44:31;8.88;;;7.60;;
19891;SDS011;10108;50.142;8.724;2023-08-06T12:46:58;8.68;;;7.60;;
19891;SDS011;10108;50.142;8.724;2023-08-06T12:49:24;8.70;;;7.90;;
19891;SDS011;10108;50.142;8.724;2023-08-06T12:51:51;8.93;;;7.75;;
19891;SDS011;10108;50.142;8.724;2023-08-06T12:54:19;9.70;;;8.65;;
19891;SDS011;10108;50.142;8.724;2023-08-06T12:56:47;11.10;;;7.90;;
19891;SDS011;10108;50.142;8.724;2023-08-06T12:59:14;9.30;;;8.07;;
19891;SDS011;10108;50.142;8.724;2023-08-06T13:01:41;9.50;;;8.60;;
19891;SDS011;10108;50.142;8.724;2023-08-06T13:04:08;9.70;;;8.40;;
19891;SDS011;10108;50.142;8.724;2023-08-06T13:06:35;9.07;;;8.18;;
19891;SDS011;10108;50.142;8.724;2023-08-06T13:09:03;9.20;;;8.30;;
19891;SDS011;10108;50.142;8.724;2023-08-06T13:11:30;9.93;;;8.00;;
19891;SDS011;10108;50.142;8.724;2023-08-06T13:14:03;9.52;;;8.63;;
19891;SDS011;10108;50.142;8.724;2023-08-06T13:16:34;9.60;;;8.60;;
19891;SDS011;10108;50.142;8.724;2023-08-06T13:19:02;9.88;;;8.98;;
19891;SDS011;10108;50.142;8.724;2023-08-06T13:21:35;9.18;;;8.27;;
19891;SDS011;10108;50.142;8.724;2023-08-06T13:24:29;8.77;;;7.88;;
19891;SDS011;10108;50.142;8.724;2023-08-06T13:26:55;9.27;;;8.38;;
19891;SDS011;10108;50.142;8.724;2023-08-06T13:29:21;9.30;;;8.40;;
19891;SDS011;10108;50.142;8.724;2023-08-06T13:31:47;9.65;;;8.75;;
19891;SDS011;10108;50.142;8.724;2023-08-06T13:34:13;9.30;;;8.40;;
19891;SDS011;10108;50.142;8.724;2023-08-06T13:36:42;8.90;;;8.10;;
19891;SDS011;10108;50.142;8.724;2023-08-06T13:39:08;9.07;;;8.18;;
19891;SDS011;10108;50.142;8.724;2023-08-06T13:41:34;9.40;;;8.40;;
19891;SDS011;10108;50.142;8.724;2023-08-06T13:44:00;9.60;;;8.10;;
19891;SDS011;10108;50.142;8.724;2023-08-06T13:46:26;11.45;;;8.70;;
19891;SDS011;10108;50.142;8.724;2023-08-06T13:48:53;9.20;;;8.10;;
19891;SDS011;10108;50.142;8.724;2023-08-06T13:51:19;9.68;;;8.77;;
19891;SDS011;10108;50.142;8.724;2023-08-06T13:53:45;9.88;;;8.88;;
19891;SDS011;10108;50.142;8.724;2023-08-06T13:56:11;9.75;;;8.75;;
19891;SDS011;10108;50.142;8.724;2023-08-06T13:58:38;10.60;;;8.80;;
19891;SDS011;10108;50.142;8.724;2023-08-06T14:01:04;10.57;;;8.90;;
19891;SDS011;10108;50.142;8.724;2023-08-06T14:03:30;9.90;;;8.35;;
19891;SDS011;10108;50.142;8.724;2023-08-06T14:05:57;9.30;;;8.40;;
19891;SDS011;10108;50.142;8.724;2023-08-06T14:08:23;9.68;;;8.30;;
19891;SDS011;10108;50.142;8.724;2023-08-06T14:10:50;9.60;;;8.60;;
19891;SDS011;10108;50.142;8.724;2023-08-06T14:13:17;9.30;;;8.40;;
19891;SDS011;10108;50.142;8.724;2023-08-06T14:15:44;9.27;;;8.38;;
19891;SDS011;10108;50.142;8.724;2023-08-06T14:18:12;9.60;;;8.60;;
19891;SDS011;10108;50.142;8.724;2023-08-06T14:20:39;8.85;;;8.05;;
19891;SDS011;10108;50.142;8.724;2023-08-06T14:23:06;10.48;;;8.48;;
19891;SDS011;10108;50.142;8.724;2023-08-06T14:25:32;9.80;;;8.80;;
19891;SDS011;10108;50.142;8.724;2023-08-06T14:27:58;12.32;;;9.35;;
19891;SDS011;10108;50.142;8.724;2023-08-06T14:30:25;10.43;;;8.88;;
19891;SDS011;10108;50.142;8.724;2023-08-06T14:32:51;10.85;;;9.75;;
19891;SDS011;10108;50.142;8.724;2023-08-06T14:35:17;10.20;;;9.30;;
19891;SDS011;10108;50.142;8.724;2023-08-06T14:37:43;10.25;;;9.27;;
19891;SDS011;10108;50.142;8.724;2023-08-06T14:40:11;9.93;;;8.93;;
19891;SDS011;10108;50.142;8.724;2023-08-06T14:42:37;10.00;;;9.00;;
19891;SDS011;10108;50.142;8.724;2023-08-06T14:45:03;9.82;;;8.82;;
19891;SDS011;10108;50.142;8.724;2023-08-06T14:47:30;9.52;;;8.63;;
19891;SDS011;10108;50.142;8.724;2023-08-06T14:49:56;10.27;;;9.27;;
19891;SDS011;10108;50.142;8.724;2023-08-06T14:52:22;10.75;;;9.68;;